Terminal Aerodrome Forecast
Issued by NWS Jackson, KY

Home | Current Version | Previous Version | Text Only | Print | Product List | Glossary On
Versions: 1 2 3 4 5 6 7 8 9 10 11 12 13 14 15 16 17 18
000
FTUS43 KJKL 241816 RRA
TAFLOZ
TAF
KLOZ 241816Z 2418/2518 15007KT P6SM VCTS SCT010CB OVC040
      TEMPO 2420/2423 VRB25KT 1SM TSRA BR BKN010CB
     FM250000 24007KT P6SM VCSH BKN030
     FM250600 23005KT P6SM VCSH OVC010=

USA.gov is the U.S. government's official web portal to all federal, state and local government web resources and services.